Time;durP1;ratioP1;P1;durP2;ratioP2;P2;SDS_P1;SDS_P2;PMS_P1;PMS_P2;Temp;Humidity;BMP_temperature;BMP_pressure;BME280_temperature;BME280_humidity;BME280_pressure;Samples;Min_cycle;Max_cycle;Signal;HPM_P1;HPM_P2
2023/10/14 00:04:09;;;;;;;6.78;3.30;;;;;;;20.12;49.41;98693.38;10491571;27;20044;-61
2023/10/14 00:09:12;;;;;;;6.32;2.25;;;;;;;20.20;49.45;98713.69;10509339;28;20040;-61
2023/10/14 00:14:18;;;;;;;8.25;2.70;;;;;;;20.18;49.51;98699.78;10512698;28;20080;-61
2023/10/14 00:19:22;;;;;;;9.00;2.47;;;;;;;20.17;48.88;98684.88;10507292;28;20044;-61
2023/10/14 00:24:28;;;;;;;6.97;2.58;;;;;;;20.05;48.80;98692.44;10512243;28;20036;-61
2023/10/14 00:29:30;;;;;;;8.63;2.70;;;;;;;20.06;47.97;98672.88;10512194;27;20086;-61
2023/10/14 00:34:32;;;;;;;5.30;2.30;;;;;;;20.11;47.02;98667.03;10493907;28;20051;-61
2023/10/14 00:39:34;;;;;;;9.70;2.10;;;;;;;20.04;46.63;98676.72;10492191;28;20058;-61
2023/10/14 00:44:38;;;;;;;7.50;2.25;;;;;;;20.12;46.55;98661.53;10506492;28;20036;-61
2023/10/14 00:49:42;;;;;;;16.67;2.58;;;;;;;19.92;46.40;98641.84;10488887;28;20411;-61
2023/10/14 00:59:54;;;;;;;6.60;2.25;;;;;;;20.09;46.31;98661.88;10506442;28;20074;-61
2023/10/14 01:04:57;;;;;;;10.75;2.70;;;;;;;20.17;46.31;98648.50;10506941;28;20040;-61
2023/10/14 01:10:00;;;;;;;5.80;2.55;;;;;;;20.17;46.33;98639.75;10507254;28;20039;-61
2023/10/14 01:15:11;;;;;;;12.13;2.42;;;;;;;20.07;46.62;98633.88;10511949;28;20521;-61
2023/10/14 01:25:19;;;;;;;6.18;2.42;;;;;;;19.92;46.01;98622.44;10513273;28;20036;-61
2023/10/14 01:30:25;;;;;;;12.68;3.00;;;;;;;19.98;46.01;98646.41;10508013;28;20054;-61
2023/10/14 01:40:37;;;;;;;3.40;1.70;;;;;;;19.81;45.51;98605.13;10495571;27;20048;-61
2023/10/14 01:45:40;;;;;;;4.20;1.83;;;;;;;19.80;45.74;98629.16;10517179;27;20059;-61
2023/10/14 01:50:49;;;;;;;2.88;1.60;;;;;;;19.76;45.31;98631.38;10518945;27;20367;-61
2023/10/14 01:55:55;;;;;;;3.00;1.40;;;;;;;19.64;45.43;98634.63;10496281;27;20048;-61
2023/10/14 02:01:07;;;;;;;3.72;1.70;;;;;;;19.68;45.52;98650.00;10500491;27;20036;-61
2023/10/14 02:06:26;;;;;;;5.22;2.15;;;;;;;19.75;46.09;98635.00;10539524;27;20044;-61
2023/10/14 02:11:35;;;;;;;5.95;1.60;;;;;;;19.68;45.97;98635.91;10523996;27;20048;-61
2023/10/14 02:16:46;;;;;;;6.70;2.03;;;;;;;19.75;46.35;98655.41;10533172;27;20047;-61
2023/10/14 02:21:57;;;;;;;4.93;1.40;;;;;;;19.68;46.55;98639.41;10509968;28;20654;-61
2023/10/14 02:27:10;;;;;;;3.72;1.50;;;;;;;19.69;46.80;98634.91;10519558;27;20052;-60
2023/10/14 02:32:13;;;;;;;4.57;1.35;;;;;;;19.65;47.02;98634.44;10519590;27;20499;-61
2023/10/14 02:37:15;;;;;;;3.42;1.23;;;;;;;19.60;46.98;98631.53;10521206;27;20059;-61
2023/10/14 02:42:18;;;;;;;2.35;1.17;;;;;;;19.53;47.40;98617.31;10519724;27;20044;-61
2023/10/14 02:47:20;;;;;;;2.08;1.27;;;;;;;19.54;47.38;98623.47;10501859;27;20047;-61
2023/10/14 02:52:29;;;;;;;2.70;1.10;;;;;;;19.52;47.88;98628.94;10501922;28;20142;-61
2023/10/14 02:57:34;;;;;;;4.72;1.00;;;;;;;19.42;48.22;98660.16;10517492;28;20051;-61
2023/10/14 03:02:48;;;;;;;2.05;1.00;;;;;;;19.34;49.41;98654.94;10518570;27;20131;-61
2023/10/14 03:07:51;;;;;;;5.25;1.17;;;;;;;18.98;52.11;98685.63;10517389;28;20056;-61
2023/10/14 03:12:53;;;;;;;1.70;1.02;;;;;;;18.51;53.97;98693.66;10512178;27;20040;-61
2023/10/14 03:17:58;;;;;;;2.10;1.10;;;;;;;18.46;53.79;98701.28;10496857;28;20396;-60
2023/10/14 03:23:11;;;;;;;2.92;1.30;;;;;;;18.44;54.96;98671.53;10473542;28;20052;-61
2023/10/14 03:28:14;;;;;;;2.30;1.13;;;;;;;18.43;54.04;98673.34;10514941;27;20767;-61
2023/10/14 03:33:20;;;;;;;1.75;0.95;;;;;;;18.51;53.97;98672.47;10513640;28;20125;-61
2023/10/14 03:38:25;;;;;;;1.33;0.80;;;;;;;18.50;54.30;98681.44;10513847;28;20054;-61
2023/10/14 03:43:27;;;;;;;1.67;0.80;;;;;;;18.48;54.08;98676.28;10515289;27;20050;-61
2023/10/14 03:48:35;;;;;;;7.18;1.83;;;;;;;18.61;53.76;98678.38;10491289;28;20051;-61
2023/10/14 03:53:38;;;;;;;2.70;0.68;;;;;;;18.66;54.10;98686.66;10508065;28;20043;-61
2023/10/14 03:58:44;;;;;;;2.20;0.73;;;;;;;18.50;54.83;98690.16;10522466;28;20636;-61
2023/10/14 04:03:51;;;;;;;0.63;0.40;;;;;;;18.16;56.15;98699.34;10508715;28;20054;-61
2023/10/14 04:08:55;;;;;;;3.20;0.55;;;;;;;17.65;58.79;98695.28;10494003;28;20101;-61
2023/10/14 04:19:13;;;;;;;1.40;0.60;;;;;;;17.48;59.78;98688.38;10513228;27;20047;-61
2023/10/14 04:29:37;;;;;;;0.70;0.45;;;;;;;16.74;61.76;98847.63;10512781;28;20046;-60
2023/10/14 04:34:39;;;;;;;0.40;0.28;;;;;;;16.17;62.56;98864.84;10508645;28;20690;-61
2023/10/14 04:39:44;;;;;;;0.45;0.22;;;;;;;15.88;63.32;98901.16;10508000;28;20526;-61
2023/10/14 04:44:58;;;;;;;0.30;0.30;;;;;;;15.57;63.38;98907.75;10523150;27;20053;-61
2023/10/14 04:50:09;;;;;;;1.45;0.17;;;;;;;15.38;64.21;98892.88;10523647;27;20870;-61
2023/10/14 05:00:32;;;;;;;0.17;0.17;;;;;;;15.26;64.58;98933.56;10489670;28;20055;-60
2023/10/14 05:05:34;;;;;;;1.85;0.40;;;;;;;15.38;64.07;98950.00;10510896;28;20040;-60
2023/10/14 05:10:41;;;;;;;0.30;0.28;;;;;;;15.28;63.87;98972.91;10491769;28;20047;-61
2023/10/14 05:15:43;;;;;;;1.65;0.47;;;;;;;15.19;64.12;98982.50;10519592;27;20207;-61
2023/10/14 05:25:58;;;;;;;0.15;0.10;;;;;;;15.27;64.07;99000.22;10519798;27;20128;-61
2023/10/14 05:31:08;;;;;;;0.40;0.13;;;;;;;15.23;64.06;99014.66;10532460;27;20072;-60
2023/10/14 05:36:10;;;;;;;;;;;;;;;15.00;65.88;99029.13;10526028;28;20036;-61
2023/10/14 05:41:12;;;;;;;0.15;0.15;;;;;;;15.08;64.43;99040.59;10533459;27;19932;-61
2023/10/14 05:46:14;;;;;;;0.30;0.30;;;;;;;15.12;64.11;99063.03;10518973;27;20488;-60
2023/10/14 05:51:18;;;;;;;0.30;0.20;;;;;;;15.16;63.95;99082.88;10506288;28;20480;-61
2023/10/14 05:56:20;;;;;;;0.20;0.20;;;;;;;15.06;64.45;99105.75;10515450;28;20058;-61
2023/10/14 06:01:23;;;;;;;2.75;0.28;;;;;;;15.00;64.48;99152.91;10516055;27;20312;-61
2023/10/14 06:06:26;;;;;;;1.45;0.90;;;;;;;14.50;63.87;99178.44;10504231;28;20028;-61
2023/10/14 06:11:28;;;;;;;1.10;0.85;;;;;;;14.20;63.52;99199.47;10526839;27;20040;-61
2023/10/14 06:16:31;;;;;;;1.42;0.75;;;;;;;13.82;63.49;99243.97;10497452;28;20070;-61
2023/10/14 06:21:33;;;;;;;2.47;1.00;;;;;;;13.57;63.37;99274.91;10515602;28;20043;-60
2023/10/14 06:26:35;;;;;;;5.03;1.13;;;;;;;13.48;63.62;99314.22;10498162;27;20044;-61
2023/10/14 06:31:37;;;;;;;3.88;1.10;;;;;;;13.59;63.01;99316.81;10514343;27;20047;-61
2023/10/14 06:36:44;;;;;;;4.32;1.25;;;;;;;13.63;62.02;99339.25;10521799;27;20206;-60
2023/10/14 06:41:46;;;;;;;3.90;1.40;;;;;;;13.67;61.71;99356.44;10500497;27;20047;-61
2023/10/14 06:46:48;;;;;;;2.67;1.10;;;;;;;13.59;61.45;99364.97;10515955;27;20126;-60
2023/10/14 06:51:51;;;;;;;5.25;1.63;;;;;;;13.77;60.69;99378.38;10513950;27;20408;-61
2023/10/14 06:56:53;;;;;;;3.88;1.20;;;;;;;13.83;59.84;99380.50;10495017;28;20138;-61
2023/10/14 07:01:55;;;;;;;3.35;1.20;;;;;;;14.00;59.73;99385.22;10514993;27;20056;-61
2023/10/14 07:06:58;;;;;;;3.03;1.05;;;;;;;14.16;59.08;99383.00;10496112;28;20052;-61
2023/10/14 07:12:00;;;;;;;7.65;2.03;;;;;;;14.43;59.05;99393.81;10494575;27;20071;-61
2023/10/14 07:17:03;;;;;;;4.70;1.30;;;;;;;14.54;58.47;99401.69;10512047;28;20059;-61
2023/10/14 07:22:07;;;;;;;5.20;1.55;;;;;;;14.61;58.37;99407.28;10515584;28;20044;-61
2023/10/14 07:27:10;;;;;;;8.20;1.55;;;;;;;14.59;57.88;99420.56;10475671;28;20134;-61
2023/10/14 07:32:15;;;;;;;3.60;1.30;;;;;;;14.75;57.71;99422.75;10494519;28;20059;-60
2023/10/14 07:37:17;;;;;;;4.03;1.30;;;;;;;14.80;57.39;99443.41;10498090;27;20048;-60
2023/10/14 07:42:21;;;;;;;3.78;1.20;;;;;;;14.73;57.23;99450.16;10511452;27;20407;-61
2023/10/14 07:47:29;;;;;;;4.35;1.42;;;;;;;14.80;56.74;99454.75;10516702;27;20121;-62
2023/10/14 07:52:31;;;;;;;4.22;1.13;;;;;;;14.64;56.56;99458.81;10512140;27;20040;-62
2023/10/14 07:57:33;;;;;;;4.00;1.13;;;;;;;14.80;56.22;99464.47;10514890;27;20055;-62
2023/10/14 08:02:35;;;;;;;5.05;1.73;;;;;;;15.05;56.26;99470.16;10507055;28;20047;-62
2023/10/14 08:07:41;;;;;;;4.32;1.52;;;;;;;15.17;55.43;99473.53;10475707;28;20074;-62
2023/10/14 08:12:50;;;;;;;3.90;1.10;;;;;;;15.47;54.07;99464.78;10500343;28;20416;-62
2023/10/14 08:17:52;;;;;;;3.50;1.17;;;;;;;15.76;54.25;99477.09;10517161;28;20044;-62
2023/10/14 08:22:54;;;;;;;2.67;1.10;;;;;;;15.91;53.64;99481.03;10510697;27;20327;-62
2023/10/14 08:27:57;;;;;;;5.93;1.42;;;;;;;16.33;53.10;99472.88;10511317;28;20219;-62
2023/10/14 08:33:03;;;;;;;5.30;1.20;;;;;;;17.06;51.67;99478.34;10491474;28;20075;-62
2023/10/14 08:38:10;;;;;;;4.97;1.10;;;;;;;17.01;48.19;99496.47;10492128;28;20085;-62
2023/10/14 08:43:19;;;;;;;6.45;1.70;;;;;;;16.60;50.70;99502.06;10506779;27;20040;-62
2023/10/14 08:48:26;;;;;;;8.00;1.42;;;;;;;16.52;50.81;99520.41;10492061;28;20051;-62
2023/10/14 08:53:33;;;;;;;3.08;1.05;;;;;;;16.37;50.20;99530.50;10508459;28;20456;-62
2023/10/14 08:58:39;;;;;;;2.45;1.20;;;;;;;15.83;51.02;99538.06;10507948;28;20040;-62
2023/10/14 09:03:49;;;;;;;3.75;1.20;;;;;;;15.60;51.65;99547.13;10510432;28;20052;-62
2023/10/14 09:08:52;;;;;;;7.57;1.90;;;;;;;15.40;51.56;99565.47;10512593;28;20518;-62
2023/10/14 09:14:02;;;;;;;4.90;1.50;;;;;;;14.96;51.66;99565.72;10491847;28;20036;-62
2023/10/14 09:19:05;;;;;;;6.18;1.92;;;;;;;14.71;52.15;99571.38;10488794;27;20063;-62
2023/10/14 09:24:08;;;;;;;3.55;1.02;;;;;;;14.74;52.18;99575.53;10507845;28;21053;-62
2023/10/14 09:29:11;;;;;;;4.32;1.13;;;;;;;15.45;51.96;99578.22;10503308;28;20048;-61
2023/10/14 09:35:11;;;;;;;;;;;;;;;16.17;49.76;99571.88;10457953;27;20542;-64
2023/10/14 09:40:13;;;;;;;5.53;1.33;;;;;;;16.51;49.11;99566.28;10450644;28;19921;-63
2023/10/14 09:45:19;;;;;;;3.00;1.42;;;;;;;16.33;47.74;99570.50;10440110;28;20099;-63
2023/10/14 09:50:23;;;;;;;2.10;1.10;;;;;;;15.79;48.20;99594.66;10446601;28;20517;-62
2023/10/14 09:55:25;;;;;;;2.17;0.82;;;;;;;15.65;47.68;99606.41;10451112;28;20052;-62
2023/10/14 10:00:27;;;;;;;6.22;1.33;;;;;;;15.78;47.33;99617.56;10435831;28;20564;-63
2023/10/14 10:05:39;;;;;;;5.53;1.30;;;;;;;15.92;46.73;99609.28;10443286;28;20448;-62
2023/10/14 10:10:42;;;;;;;5.03;1.20;;;;;;;16.03;45.38;99605.72;10466143;28;20064;-63
2023/10/14 10:15:46;;;;;;;4.80;1.73;;;;;;;16.69;45.83;99601.59;10447362;28;20049;-63
2023/10/14 10:20:56;;;;;;;3.92;1.42;;;;;;;17.00;44.01;99600.44;10445022;28;20049;-62
2023/10/14 10:25:59;;;;;;;2.78;0.90;;;;;;;16.92;44.94;99601.16;10413208;28;20087;-62
2023/10/14 10:31:10;;;;;;;3.33;1.52;;;;;;;16.53;43.46;99614.50;10442469;28;20044;-63
2023/10/14 10:36:13;;;;;;;3.95;1.00;;;;;;;16.31;44.18;99607.59;10448042;28;20045;-61
2023/10/14 10:41:25;;;;;;;5.15;1.65;;;;;;;16.45;44.31;99612.53;10440159;28;20090;-61
2023/10/14 10:46:37;;;;;;;4.13;1.00;;;;;;;16.42;43.77;99601.38;10419760;28;20169;-60
2023/10/14 10:52:06;;;;;;;4.00;1.08;;;;;;;15.78;44.02;99614.91;10422784;28;20056;-64
2023/10/14 10:57:08;;;;;;;5.22;1.50;;;;;;;15.61;45.93;99614.69;10417544;28;20033;-62
2023/10/14 11:02:11;;;;;;;4.07;1.55;;;;;;;15.87;45.26;99608.88;10405886;28;20033;-62
2023/10/14 11:07:14;;;;;;;3.60;1.15;;;;;;;16.08;44.88;99606.97;10400856;28;20067;-63
2023/10/14 11:12:18;;;;;;;4.20;1.42;;;;;;;16.08;44.53;99609.63;10406256;28;20044;-62
2023/10/14 11:17:26;;;;;;;4.18;1.60;;;;;;;15.85;44.63;99612.59;10402181;28;20041;-62
2023/10/14 11:22:29;;;;;;;5.07;2.20;;;;;;;15.92;44.67;99608.44;10420023;28;20046;-63
2023/10/14 11:27:31;;;;;;;3.55;1.15;;;;;;;16.08;44.69;99606.16;10410677;28;20476;-63
2023/10/14 11:32:33;;;;;;;6.63;1.23;;;;;;;16.26;44.09;99601.06;10416534;28;20059;-63
2023/10/14 11:37:36;;;;;;;3.38;1.20;;;;;;;16.35;44.55;99602.88;10401591;28;20043;-63
2023/10/14 11:42:54;;;;;;;2.58;1.10;;;;;;;16.41;43.34;99602.31;10419564;28;20041;-63
2023/10/14 11:48:00;;;;;;;2.97;1.25;;;;;;;16.29;43.73;99606.06;10418732;28;20059;-62
2023/10/14 11:53:03;;;;;;;3.50;1.33;;;;;;;16.17;43.06;99608.81;10420029;28;20307;-62
2023/10/14 11:58:04;;;;;;;2.08;1.15;;;;;;;15.98;43.45;99614.03;10417450;28;20382;-62
2023/10/14 12:03:07;;;;;;;3.58;1.17;;;;;;;16.07;42.76;99613.25;10415455;28;20041;-62
2023/10/14 12:08:09;;;;;;;3.90;1.10;;;;;;;16.03;41.74;99625.03;10421984;28;20138;-62
2023/10/14 12:13:11;;;;;;;2.38;1.00;;;;;;;16.04;42.27;99615.31;10415418;28;20068;-62
2023/10/14 12:18:13;;;;;;;3.25;0.95;;;;;;;16.21;41.98;99620.78;10403171;28;20044;-62
2023/10/14 12:23:19;;;;;;;1.75;0.90;;;;;;;16.21;40.47;99620.78;10419148;28;20130;-62
2023/10/14 12:28:30;;;;;;;1.70;0.70;;;;;;;16.24;40.14;99630.25;10416578;28;20431;-62
2023/10/14 12:33:32;;;;;;;;;;;;;;;16.29;38.29;99638.56;10415443;28;20045;-62
2023/10/14 12:38:36;;;;;;;2.05;0.95;;;;;;;16.53;39.85;99635.63;10433001;28;20426;-62
2023/10/14 12:43:39;;;;;;;3.63;1.42;;;;;;;16.63;39.42;99637.28;10413573;28;20047;-62
2023/10/14 12:48:43;;;;;;;3.78;1.42;;;;;;;16.87;38.86;99643.00;10409177;28;20456;-62
2023/10/14 12:53:46;;;;;;;4.40;1.15;;;;;;;17.04;39.01;99646.75;10412812;28;20753;-62
2023/10/14 12:58:48;;;;;;;4.85;1.08;;;;;;;17.16;38.87;99647.47;10390308;28;20723;-62
2023/10/14 13:03:53;;;;;;;3.45;1.00;;;;;;;17.52;38.23;99641.47;10392944;28;20049;-62
2023/10/14 13:09:00;;;;;;;6.10;1.80;;;;;;;17.23;37.84;99646.75;10416984;28;20041;-62
2023/10/14 13:14:03;;;;;;;3.70;1.00;;;;;;;16.96;37.71;99649.25;10412505;28;20041;-62
2023/10/14 13:19:07;;;;;;;1.67;0.90;;;;;;;17.05;38.30;99666.94;10416758;28;20033;-62
2023/10/14 13:24:11;;;;;;;3.38;1.10;;;;;;;16.76;36.53;99666.91;10412289;28;20037;-62
2023/10/14 13:29:13;;;;;;;1.88;1.13;;;;;;;16.48;37.60;99677.41;10417437;28;20841;-62
2023/10/14 13:34:18;;;;;;;4.38;1.02;;;;;;;16.03;37.78;99688.34;10408618;28;20063;-62
2023/10/14 13:39:20;;;;;;;3.60;1.02;;;;;;;16.10;38.34;99686.81;10417646;28;20060;-62
2023/10/14 13:44:23;;;;;;;5.05;1.17;;;;;;;16.45;38.43;99688.22;10413824;28;20043;-62
2023/10/14 13:49:25;;;;;;;5.03;1.40;;;;;;;16.95;38.28;99690.72;10417683;28;20531;-62
2023/10/14 13:54:28;;;;;;;4.13;1.10;;;;;;;16.94;37.78;99689.03;10396614;28;20048;-62
2023/10/14 13:59:29;;;;;;;2.28;0.90;;;;;;;17.09;37.40;99692.09;10416222;28;20060;-61
2023/10/14 14:04:34;;;;;;;2.88;1.30;;;;;;;17.10;37.73;99690.31;10414259;28;20044;-62
2023/10/14 14:09:37;;;;;;;1.77;0.80;;;;;;;17.00;37.56;99690.28;10412049;28;20118;-62
2023/10/14 14:14:39;;;;;;;2.90;0.82;;;;;;;16.68;38.10;99694.97;10414041;28;20662;-62
2023/10/14 14:19:40;;;;;;;0.80;0.55;;;;;;;16.62;37.73;99700.78;10418045;28;20408;-62
2023/10/14 14:24:42;;;;;;;1.88;0.82;;;;;;;16.57;37.70;99711.75;10422001;28;20041;-62
2023/10/14 14:29:45;;;;;;;2.78;1.05;;;;;;;16.97;37.26;99719.63;10423473;28;20067;-62
2023/10/14 14:34:50;;;;;;;1.42;0.75;;;;;;;17.08;37.48;99716.84;10404116;28;20136;-62
2023/10/14 14:39:52;;;;;;;5.22;1.58;;;;;;;17.19;36.97;99714.09;10423185;28;20511;-62
2023/10/14 14:44:53;;;;;;;2.00;0.90;;;;;;;17.03;37.17;99719.91;10420145;28;20040;-62
2023/10/14 14:49:55;;;;;;;4.38;1.00;;;;;;;16.45;37.96;99723.38;10403688;28;20045;-62
2023/10/14 14:54:58;;;;;;;4.32;1.23;;;;;;;16.11;38.57;99740.44;10402708;28;20052;-62
2023/10/14 15:00:00;;;;;;;3.25;0.95;;;;;;;15.76;39.04;99745.22;10404905;28;20784;-62
2023/10/14 15:05:04;;;;;;;12.43;1.45;;;;;;;15.91;39.47;99746.56;10420433;28;20045;-62
2023/10/14 15:10:07;;;;;;;9.13;1.20;;;;;;;16.11;39.55;99748.34;10419651;28;20048;-62
2023/10/14 15:15:09;;;;;;;3.92;1.00;;;;;;;15.99;39.72;99755.50;10422477;28;20041;-62
2023/10/14 15:20:13;;;;;;;3.80;1.00;;;;;;;15.81;40.08;99759.69;10402065;28;20266;-62
2023/10/14 15:25:16;;;;;;;3.75;1.38;;;;;;;15.48;40.62;99761.63;10416436;28;20063;-62
2023/10/14 15:30:18;;;;;;;3.13;1.02;;;;;;;15.13;41.18;99772.41;10408356;28;20187;-62
2023/10/14 15:35:25;;;;;;;4.60;1.65;;;;;;;14.99;41.40;99775.31;10402679;28;20126;-61
2023/10/14 15:40:32;;;;;;;4.10;0.63;;;;;;;14.81;41.10;99779.41;10419598;28;20041;-61
2023/10/14 15:45:37;;;;;;;4.15;1.60;;;;;;;14.73;40.90;99776.56;10419474;28;20045;-62
2023/10/14 15:50:42;;;;;;;2.75;1.00;;;;;;;14.48;41.63;99777.63;10415702;28;20037;-62
2023/10/14 15:55:44;;;;;;;3.90;1.45;;;;;;;14.40;41.66;99787.91;10416632;28;20511;-61
2023/10/14 16:00:50;;;;;;;4.03;0.90;;;;;;;14.30;41.92;99787.78;10417584;28;20048;-61
2023/10/14 16:05:56;;;;;;;3.10;0.93;;;;;;;14.19;41.77;99805.34;10417329;28;20220;-62
2023/10/14 16:11:01;;;;;;;1.98;0.60;;;;;;;14.08;41.91;99800.06;10420744;28;20394;-61
2023/10/14 16:16:03;;;;;;;1.23;0.80;;;;;;;13.98;42.19;99813.09;10416299;28;20053;-61
2023/10/14 16:21:06;;;;;;;1.48;0.60;;;;;;;13.88;42.09;99822.59;10421728;28;20072;-61
2023/10/14 16:26:11;;;;;;;2.88;0.80;;;;;;;13.91;42.64;99838.16;10418070;28;20412;-61
2023/10/14 16:31:13;;;;;;;4.22;1.27;;;;;;;13.91;42.54;99843.41;10383842;28;20052;-62
2023/10/14 16:36:16;;;;;;;3.50;1.40;;;;;;;13.82;43.04;99856.41;10420649;28;20040;-62
2023/10/14 16:41:18;;;;;;;5.20;1.55;;;;;;;13.73;43.15;99855.28;10418409;28;20501;-62
2023/10/14 16:46:20;;;;;;;5.20;1.65;;;;;;;13.51;42.82;99856.03;10419926;28;20033;-61
2023/10/14 16:51:25;;;;;;;3.10;1.10;;;;;;;13.48;43.07;99869.38;10404518;28;20623;-62
2023/10/14 16:56:32;;;;;;;5.30;1.10;;;;;;;13.41;43.09;99885.69;10423920;28;20053;-62
2023/10/14 17:01:36;;;;;;;2.10;0.90;;;;;;;13.40;43.51;99899.75;10421871;28;20049;-61
2023/10/14 17:06:38;;;;;;;3.47;1.00;;;;;;;13.17;43.58;99914.50;10424377;28;20041;-61
2023/10/14 17:11:40;;;;;;;6.03;1.23;;;;;;;13.24;43.98;99923.66;10424659;28;20437;-61
2023/10/14 17:16:42;;;;;;;3.35;1.20;;;;;;;13.11;44.28;99935.94;10422146;28;20124;-61
2023/10/14 17:21:45;;;;;;;2.83;0.93;;;;;;;12.98;44.81;99946.47;10422309;28;20484;-62
2023/10/14 17:26:47;;;;;;;5.68;1.20;;;;;;;12.79;45.09;99959.19;10438544;28;20216;-61
2023/10/14 17:31:49;;;;;;;2.75;1.00;;;;;;;12.68;45.69;99968.75;10409999;28;20057;-61
2023/10/14 17:36:51;;;;;;;5.40;1.80;;;;;;;12.49;45.96;99973.53;10410629;28;20048;-61
2023/10/14 17:41:53;;;;;;;5.43;1.25;;;;;;;12.37;46.43;99969.97;10415312;28;20128;-61
2023/10/14 17:46:56;;;;;;;3.85;1.20;;;;;;;12.28;46.84;99985.41;10405497;28;20891;-61
2023/10/14 17:51:59;;;;;;;4.00;1.10;;;;;;;12.28;47.31;99996.78;10418680;28;20472;-61
2023/10/14 17:57:01;;;;;;;2.47;0.90;;;;;;;12.24;47.54;100003.13;10431714;28;20103;-61
2023/10/14 18:02:03;;;;;;;3.38;1.30;;;;;;;12.12;47.86;100014.41;10408729;28;20055;-61
2023/10/14 18:07:06;;;;;;;4.32;1.30;;;;;;;12.03;47.73;100026.31;10426622;28;20059;-61
2023/10/14 18:12:10;;;;;;;4.63;1.17;;;;;;;11.93;48.13;100021.78;10403301;28;20147;-61
2023/10/14 18:17:11;;;;;;;6.03;1.98;;;;;;;12.16;47.74;100026.38;10429493;28;20922;-61
2023/10/14 18:22:15;;;;;;;3.92;1.13;;;;;;;12.28;48.04;100030.88;10421110;28;20045;-61
2023/10/14 18:27:17;;;;;;;4.43;1.40;;;;;;;12.30;47.64;100028.97;10425528;28;20052;-61
2023/10/14 18:32:20;;;;;;;3.50;1.30;;;;;;;12.33;48.08;100036.66;10409019;28;20049;-61
2023/10/14 18:37:22;;;;;;;5.22;0.98;;;;;;;12.36;47.75;100046.94;10426067;28;20041;-61
2023/10/14 18:42:25;;;;;;;1.77;1.00;;;;;;;12.34;47.91;100046.19;10428605;28;20889;-61
2023/10/14 18:47:31;;;;;;;3.85;1.55;;;;;;;12.32;48.12;100048.09;10407463;28;20048;-61
2023/10/14 18:52:33;;;;;;;3.05;1.13;;;;;;;12.22;48.20;100048.75;10406942;28;20036;-61
2023/10/14 18:57:36;;;;;;;2.92;1.15;;;;;;;12.12;48.35;100053.75;10411184;28;20045;-61
2023/10/14 19:02:38;;;;;;;3.35;0.90;;;;;;;12.18;48.60;100052.50;10427173;28;20048;-61
2023/10/14 19:07:43;;;;;;;2.15;1.23;;;;;;;12.22;48.68;100067.09;10407583;28;20101;-61
2023/10/14 19:12:46;;;;;;;3.28;1.17;;;;;;;12.28;48.72;100070.19;10404717;28;20382;-61
2023/10/14 19:17:48;;;;;;;3.90;1.05;;;;;;;12.35;48.59;100082.00;10424352;28;20044;-61
2023/10/14 19:23:07;;;;;;;3.15;0.90;;;;;;;12.31;48.99;100083.13;10439316;28;20090;-61
2023/10/14 19:28:10;;;;;;;2.97;0.80;;;;;;;12.28;48.57;100080.69;10423051;28;20401;-61
2023/10/14 19:33:15;;;;;;;4.93;1.55;;;;;;;12.22;48.72;100075.81;10440078;28;20060;-61
2023/10/14 19:38:19;;;;;;;3.00;1.08;;;;;;;12.07;49.14;100084.63;10423236;28;20489;-61
2023/10/14 19:43:21;;;;;;;4.25;1.17;;;;;;;12.10;49.59;100093.16;10423982;28;20053;-61
2023/10/14 19:48:24;;;;;;;2.80;1.30;;;;;;;12.07;49.70;100088.09;10406820;28;20051;-61
2023/10/14 19:53:29;;;;;;;5.18;1.48;;;;;;;12.04;50.04;100096.19;10398176;28;20408;-61
2023/10/14 19:58:33;;;;;;;5.20;1.40;;;;;;;11.94;50.05;100087.22;10421378;28;20873;-62
2023/10/14 20:03:36;;;;;;;10.15;1.80;;;;;;;11.80;49.99;100099.50;10424101;28;20041;-61
2023/10/14 20:08:38;;;;;;;3.25;1.77;;;;;;;11.86;50.21;100106.97;10405182;28;20041;-61
2023/10/14 20:13:41;;;;;;;7.07;1.90;;;;;;;11.95;50.62;100109.84;10404911;28;20518;-62
2023/10/14 20:18:43;;;;;;;4.55;1.70;;;;;;;11.92;51.08;100112.69;10419778;28;20049;-61
2023/10/14 20:23:46;;;;;;;5.80;1.60;;;;;;;11.82;51.05;100129.91;10420305;28;20182;-61
2023/10/14 20:28:47;;;;;;;5.57;1.90;;;;;;;11.73;51.00;100133.09;10435485;28;20045;-62
2023/10/14 20:33:50;;;;;;;3.45;1.38;;;;;;;11.71;50.91;100131.50;10401545;28;20144;-61
2023/10/14 20:38:52;;;;;;;5.20;1.75;;;;;;;11.73;51.00;100140.09;10418382;28;20049;-61
2023/10/14 20:43:55;;;;;;;3.10;1.27;;;;;;;11.71;50.41;100148.06;10402630;28;20413;-61
2023/10/14 20:48:57;;;;;;;3.88;1.13;;;;;;;11.59;50.65;100147.94;10402875;28;20228;-61
2023/10/14 20:54:00;;;;;;;2.85;1.02;;;;;;;11.42;51.14;100146.34;10403987;28;20045;-61
2023/10/14 20:59:04;;;;;;;2.03;1.08;;;;;;;11.35;50.94;100144.19;10418443;28;20049;-61
2023/10/14 21:04:06;;;;;;;2.15;1.10;;;;;;;11.24;51.14;100143.06;10420301;28;20509;-62
2023/10/14 21:09:09;;;;;;;4.45;1.10;;;;;;;11.22;51.14;100144.06;10419695;28;20329;-61
2023/10/14 21:14:14;;;;;;;4.65;1.20;;;;;;;10.95;52.00;100143.88;10419953;28;20044;-61
2023/10/14 21:19:16;;;;;;;3.05;1.13;;;;;;;10.84;51.92;100140.19;10419299;28;20346;-62
2023/10/14 21:24:18;;;;;;;4.40;1.20;;;;;;;10.78;52.14;100148.41;10385462;28;20045;-61
2023/10/14 21:29:20;;;;;;;3.05;1.52;;;;;;;10.61;52.26;100136.25;10400537;28;20041;-61
2023/10/14 21:34:24;;;;;;;4.95;1.25;;;;;;;10.49;52.56;100142.19;10399346;28;20494;-62
2023/10/14 21:39:26;;;;;;;8.05;1.65;;;;;;;10.44;52.76;100147.66;10418955;28;20465;-61
2023/10/14 21:44:29;;;;;;;3.78;1.55;;;;;;;10.36;52.97;100152.47;10421164;28;20630;-61
2023/10/14 21:49:32;;;;;;;3.50;1.58;;;;;;;10.31;53.22;100161.50;10419849;28;20126;-61
2023/10/14 21:54:34;;;;;;;4.40;1.35;;;;;;;10.28;53.42;100151.22;10419711;28;20052;-61
2023/10/14 21:59:36;;;;;;;3.05;1.38;;;;;;;10.30;53.63;100144.97;10420940;28;20040;-61
2023/10/14 22:04:38;;;;;;;4.53;1.25;;;;;;;10.39;53.57;100152.31;10432451;28;20044;-61
2023/10/14 22:09:40;;;;;;;6.75;2.25;;;;;;;10.44;53.43;100155.50;10401339;28;20037;-61
2023/10/14 22:14:43;;;;;;;5.13;1.50;;;;;;;10.38;53.57;100148.00;10400963;28;20075;-61
2023/10/14 22:19:47;;;;;;;0.85;0.85;;;;;;;10.42;53.67;100151.28;10418601;28;20052;-61
2023/10/14 22:24:49;;;;;;;3.78;1.00;;;;;;;10.29;53.35;100145.06;10401204;28;20045;-61
2023/10/14 22:29:52;;;;;;;4.32;1.25;;;;;;;10.17;53.66;100145.75;10417673;28;20045;-61
2023/10/14 22:34:54;;;;;;;1.17;0.85;;;;;;;10.08;54.04;100134.00;10401641;28;20053;-61
2023/10/14 22:39:56;;;;;;;3.47;1.38;;;;;;;9.96;54.06;100128.59;10419534;28;20045;-61
2023/10/14 22:44:58;;;;;;;1.90;0.95;;;;;;;9.87;54.25;100127.31;10425628;28;20563;-61
2023/10/14 22:50:00;;;;;;;2.60;0.88;;;;;;;9.67;54.74;100138.00;10428312;28;20045;-61
2023/10/14 22:55:18;;;;;;;1.88;1.10;;;;;;;9.55;55.10;100146.44;10427553;28;20049;-61
2023/10/14 23:00:21;;;;;;;3.63;1.10;;;;;;;9.47;54.95;100133.78;10427407;28;20122;-61
2023/10/14 23:05:27;;;;;;;1.95;0.98;;;;;;;9.43;55.01;100127.03;10426573;28;20375;-61
2023/10/14 23:10:31;;;;;;;3.30;1.00;;;;;;;9.31;55.12;100132.91;10424763;28;20077;-61
2023/10/14 23:15:34;;;;;;;2.92;1.20;;;;;;;9.24;55.19;100136.72;10425251;28;20044;-61
2023/10/14 23:20:36;;;;;;;2.50;1.20;;;;;;;9.26;55.49;100140.09;10439673;28;20122;-61
2023/10/14 23:25:41;;;;;;;4.53;1.20;;;;;;;9.19;55.72;100136.13;10425588;28;20500;-61
2023/10/14 23:30:44;;;;;;;4.43;1.30;;;;;;;9.20;56.04;100143.03;10406832;28;20390;-61
2023/10/14 23:35:46;;;;;;;3.53;1.17;;;;;;;9.21;55.68;100136.91;10405100;28;20041;-61
2023/10/14 23:40:48;;;;;;;1.48;0.75;;;;;;;9.20;55.98;100144.81;10425093;28;20041;-61
2023/10/14 23:45:50;;;;;;;2.10;0.85;;;;;;;9.02;55.95;100143.97;10437598;28;20060;-61
2023/10/14 23:50:53;;;;;;;2.10;1.23;;;;;;;9.00;56.17;100161.44;10405991;28;20052;-61
2023/10/14 23:55:55;;;;;;;3.05;1.30;;;;;;;8.87;56.30;100159.53;10408043;28;20048;-61
